Time;durP1;ratioP1;P1;durP2;ratioP2;P2;SDS_P1;SDS_P2;PMS_P1;PMS_P2;Temp;Humidity;BMP_temperature;BMP_pressure;BME280_temperature;BME280_humidity;BME280_pressure;Samples;Min_cycle;Max_cycle;Signal;HPM_P1;HPM_P2
2022/07/25 00:02:26;;;;;;;;;;;28.90;44.50;;;;;;5072084;28;19995;-60
2022/07/25 00:04:51;;;;;;;;;;;28.90;44.80;;;;;;5071748;28;19912;-58
2022/07/25 00:07:17;;;;;;;;;;;28.90;44.70;;;;;;5071857;28;19958;-59
2022/07/25 00:09:43;;;;;;;;;;;28.90;44.90;;;;;;5071657;28;20431;-59
2022/07/25 00:12:08;;;;;;;;;;;28.80;45.00;;;;;;5071730;28;19913;-61
2022/07/25 00:14:34;;;;;;;;;;;28.80;45.00;;;;;;5071593;28;19963;-62
2022/07/25 00:16:59;;;;;;;;;;;28.80;45.10;;;;;;5071547;28;20355;-58
2022/07/25 00:19:25;;;;;;;;;;;28.80;45.30;;;;;;5071652;28;20005;-61
2022/07/25 00:21:50;;;;;;;;;;;28.70;45.50;;;;;;5071519;28;19912;-60
2022/07/25 00:24:16;;;;;;;;;;;28.70;45.70;;;;;;5071503;28;19919;-60
2022/07/25 00:26:41;;;;;;;;;;;28.70;45.70;;;;;;5071586;28;19912;-59
2022/07/25 00:29:07;;;;;;;;;;;28.60;45.70;;;;;;5071732;28;19955;-61
2022/07/25 00:31:33;;;;;;;;;;;28.50;46.10;;;;;;5071404;28;19912;-59
2022/07/25 00:33:58;;;;;;;;;;;28.40;45.90;;;;;;5071813;28;19959;-57
2022/07/25 00:36:24;;;;;;;;;;;28.40;46.00;;;;;;5071599;28;19918;-62
2022/07/25 00:38:49;;;;;;;;;;;28.50;46.10;;;;;;5071276;28;19908;-59
2022/07/25 00:41:15;;;;;;;;;;;28.50;46.10;;;;;;5080025;28;19912;-58
2022/07/25 00:43:44;;;;;;;;;;;28.50;46.00;;;;;;5082904;28;19909;-60
2022/07/25 00:46:16;;;;;;;;;;;28.50;45.80;;;;;;5075054;28;19908;-61
2022/07/25 00:48:42;;;;;;;;;;;28.50;45.70;;;;;;5074998;28;19908;-64
2022/07/25 00:51:09;;;;;;;;;;;28.50;45.50;;;;;;5074853;28;19908;-58
2022/07/25 00:53:35;;;;;;;;;;;28.50;45.50;;;;;;5074869;28;19908;-58
2022/07/25 00:56:01;;;;;;;;;;;28.50;45.60;;;;;;5074764;28;19909;-60
2022/07/25 00:58:26;;;;;;;;;;;28.50;45.60;;;;;;5074662;28;19922;-59
2022/07/25 01:00:52;;;;;;;;;;;28.40;45.70;;;;;;5074640;28;20292;-61
2022/07/25 01:03:17;;;;;;;;;;;28.40;45.80;;;;;;5074512;28;19995;-61
2022/07/25 01:05:43;;;;;;;;;;;28.40;46.00;;;;;;5074535;28;20356;-60
2022/07/25 01:08:09;;;;;;;;;;;28.40;46.10;;;;;;5076867;28;20324;-60
2022/07/25 01:10:35;;;;;;;;;;;28.40;46.20;;;;;;5075856;28;19915;-58
2022/07/25 01:13:00;;;;;;;;;;;28.30;46.30;;;;;;5074542;28;19916;-63
2022/07/25 01:15:26;;;;;;;;;;;28.30;46.60;;;;;;5074273;28;20372;-60
2022/07/25 01:17:52;;;;;;;;;;;28.20;46.80;;;;;;5074685;28;19921;-63
2022/07/25 01:20:21;;;;;;;;;;;28.10;46.90;;;;;;5074564;28;19908;-61
2022/07/25 01:22:47;;;;;;;;;;;28.20;46.90;;;;;;5074727;28;20003;-62
2022/07/25 01:25:13;;;;;;;;;;;28.20;46.80;;;;;;5074360;28;20019;-59
2022/07/25 01:27:39;;;;;;;;;;;28.20;47.10;;;;;;5075341;28;19915;-74
2022/07/25 01:30:06;;;;;;;;;;;28.10;47.20;;;;;;5075867;28;19919;-76
2022/07/25 01:32:32;;;;;;;;;;;28.10;47.30;;;;;;5078211;28;19961;-76
2022/07/25 01:34:57;;;;;;;;;;;28.10;47.20;;;;;;5076471;28;19912;-70
2022/07/25 01:37:23;;;;;;;;;;;28.00;47.40;;;;;;5074465;28;19982;-77
2022/07/25 01:39:49;;;;;;;;;;;28.10;47.60;;;;;;5074418;28;20379;-76
2022/07/25 01:42:14;;;;;;;;;;;27.90;47.80;;;;;;5087982;28;20371;-77
2022/07/25 01:44:40;;;;;;;;;;;27.90;48.00;;;;;;5073785;28;19919;-76
2022/07/25 01:47:05;;;;;;;;;;;27.80;48.20;;;;;;5073753;28;19913;-78
2022/07/25 01:49:31;;;;;;;;;;;27.80;48.30;;;;;;5073633;28;19912;-78
2022/07/25 01:51:56;;;;;;;;;;;27.80;48.60;;;;;;5073626;28;20298;-76
2022/07/25 01:54:22;;;;;;;;;;;27.70;48.70;;;;;;5073468;28;19912;-73
2022/07/25 01:56:48;;;;;;;;;;;27.70;48.90;;;;;;5073460;28;19949;-76
2022/07/25 01:59:13;;;;;;;;;;;27.70;49.10;;;;;;5073426;28;19947;-68
2022/07/25 02:01:39;;;;;;;;;;;27.80;49.10;;;;;;5073435;28;20284;-78
2022/07/25 02:04:04;;;;;;;;;;;27.80;49.10;;;;;;5071965;28;20283;-76
2022/07/25 02:06:30;;;;;;;;;;;27.70;49.10;;;;;;5073330;28;19909;-59
2022/07/25 02:08:55;;;;;;;;;;;27.70;49.30;;;;;;5073466;28;19999;-59
2022/07/25 02:11:21;;;;;;;;;;;27.60;49.50;;;;;;5073252;28;20261;-63
2022/07/25 02:13:47;;;;;;;;;;;27.60;49.70;;;;;;5073259;28;20037;-58
2022/07/25 02:16:12;;;;;;;;;;;27.60;49.80;;;;;;5073108;28;19962;-64
2022/07/25 02:18:38;;;;;;;;;;;27.60;49.80;;;;;;5073048;28;20362;-58
2022/07/25 02:21:08;;;;;;;;;;;27.60;50.00;;;;;;5073211;28;19912;-59
2022/07/25 02:23:34;;;;;;;;;;;27.50;49.70;;;;;;5073052;28;19913;-58
2022/07/25 02:26:00;;;;;;;;;;;27.50;49.90;;;;;;5072995;28;19912;-61
2022/07/25 02:28:25;;;;;;;;;;;27.50;50.00;;;;;;5072927;28;20410;-61
2022/07/25 02:30:51;;;;;;;;;;;27.50;50.00;;;;;;5072849;28;19913;-58
2022/07/25 02:33:16;;;;;;;;;;;27.40;50.10;;;;;;5072739;28;19913;-60
2022/07/25 02:35:42;;;;;;;;;;;27.40;50.30;;;;;;5073009;28;19915;-58
2022/07/25 02:38:07;;;;;;;;;;;27.50;50.10;;;;;;5072716;28;19920;-60
2022/07/25 02:40:33;;;;;;;;;;;27.50;50.20;;;;;;5073269;28;19938;-58
2022/07/25 02:42:58;;;;;;;;;;;27.40;50.30;;;;;;5086285;28;19913;-61
2022/07/25 02:45:24;;;;;;;;;;;27.40;50.20;;;;;;5072614;28;20030;-58
2022/07/25 02:47:50;;;;;;;;;;;27.50;50.40;;;;;;5072512;28;20018;-61
2022/07/25 02:50:15;;;;;;;;;;;27.40;50.20;;;;;;5072782;28;19951;-61
2022/07/25 02:52:42;;;;;;;;;;;27.40;50.60;;;;;;5072585;28;19920;-63
2022/07/25 02:55:08;;;;;;;;;;;27.40;50.50;;;;;;5072484;28;20002;-58
2022/07/25 02:57:33;;;;;;;;;;;27.40;50.40;;;;;;5072982;28;20014;-64
2022/07/25 02:59:59;;;;;;;;;;;27.50;50.20;;;;;;5074713;28;20403;-66
2022/07/25 03:02:24;;;;;;;;;;;27.50;50.10;;;;;;5072422;28;20366;-60
2022/07/25 03:04:50;;;;;;;;;;;27.50;50.20;;;;;;5071900;28;20283;-61
2022/07/25 03:07:15;;;;;;;;;;;27.50;50.20;;;;;;5072430;28;20322;-64
2022/07/25 03:09:41;;;;;;;;;;;27.50;50.50;;;;;;5072294;28;19912;-61
2022/07/25 03:12:07;;;;;;;;;;;27.50;50.50;;;;;;5072401;28;19916;-67
2022/07/25 03:14:32;;;;;;;;;;;27.40;50.60;;;;;;5072052;28;19909;-67
2022/07/25 03:16:58;;;;;;;;;;;27.40;50.70;;;;;;5071852;28;20280;-69
2022/07/25 03:19:23;;;;;;;;;;;27.40;50.40;;;;;;5072218;28;19920;-69
2022/07/25 03:21:49;;;;;;;;;;;27.40;50.60;;;;;;5072034;28;19909;-67
2022/07/25 03:24:14;;;;;;;;;;;27.40;50.70;;;;;;5072248;28;19913;-66
2022/07/25 03:26:40;;;;;;;;;;;27.40;50.50;;;;;;5072033;28;19908;-71
2022/07/25 03:29:05;;;;;;;;;;;27.40;50.50;;;;;;5072213;28;19912;-63
2022/07/25 03:31:31;;;;;;;;;;;27.30;50.70;;;;;;5071808;28;19913;-65
2022/07/25 03:33:56;;;;;;;;;;;27.30;50.80;;;;;;5072053;28;19912;-63
2022/07/25 03:36:22;;;;;;;;;;;27.30;50.70;;;;;;5072049;28;19912;-62
2022/07/25 03:38:48;;;;;;;;;;;27.30;50.80;;;;;;5071873;28;20118;-64
2022/07/25 03:41:13;;;;;;;;;;;27.30;50.80;;;;;;5078037;28;19916;-61
2022/07/25 03:43:39;;;;;;;;;;;27.30;50.90;;;;;;5079925;28;19920;-68
2022/07/25 03:46:04;;;;;;;;;;;27.30;50.80;;;;;;5071885;28;19915;-61
2022/07/25 03:48:30;;;;;;;;;;;27.30;50.90;;;;;;5071945;28;19948;-60
2022/07/25 03:50:56;;;;;;;;;;;27.30;50.90;;;;;;5071989;28;19912;-63
2022/07/25 03:53:21;;;;;;;;;;;27.30;51.00;;;;;;5071914;28;19917;-62
2022/07/25 03:55:47;;;;;;;;;;;27.30;50.80;;;;;;5071824;28;20347;-60
2022/07/25 03:58:12;;;;;;;;;;;27.30;50.70;;;;;;5071744;28;19970;-62
2022/07/25 04:00:38;;;;;;;;;;;27.30;50.60;;;;;;5071903;28;19908;-58
2022/07/25 04:03:04;;;;;;;;;;;27.40;50.40;;;;;;5085918;28;19912;-59
2022/07/25 04:05:29;;;;;;;;;;;27.40;50.40;;;;;;5071853;28;19912;-59
2022/07/25 04:07:55;;;;;;;;;;;27.40;50.10;;;;;;5071653;28;19908;-61
2022/07/25 04:10:20;;;;;;;;;;;27.30;50.20;;;;;;5071827;28;19909;-59
2022/07/25 04:12:46;;;;;;;;;;;27.30;49.80;;;;;;5072121;28;19920;-58
2022/07/25 04:15:12;;;;;;;;;;;27.40;50.10;;;;;;5072268;28;19909;-64
2022/07/25 04:17:37;;;;;;;;;;;27.40;49.80;;;;;;5075377;28;19975;-63
2022/07/25 04:20:03;;;;;;;;;;;27.50;49.70;;;;;;5075315;28;19917;-58
2022/07/25 04:22:29;;;;;;;;;;;27.50;49.40;;;;;;5075411;28;19982;-58
2022/07/25 04:24:55;;;;;;;;;;;27.50;49.60;;;;;;5075226;28;20391;-60
2022/07/25 04:27:21;;;;;;;;;;;27.40;49.70;;;;;;5075369;28;19913;-64
2022/07/25 04:29:46;;;;;;;;;;;27.50;49.20;;;;;;5075384;28;20386;-64
2022/07/25 04:32:13;;;;;;;;;;;27.50;48.50;;;;;;5073914;28;19912;-61
2022/07/25 04:34:39;;;;;;;;;;;27.60;48.30;;;;;;5075106;28;20360;-58
2022/07/25 04:37:04;;;;;;;;;;;27.60;48.50;;;;;;5079063;28;19997;-60
2022/07/25 04:39:30;;;;;;;;;;;27.70;49.10;;;;;;5085290;28;19912;-58
2022/07/25 04:41:56;;;;;;;;;;;27.70;48.30;;;;;;5087176;28;20032;-63
2022/07/25 04:44:21;;;;;;;;;;;27.70;48.50;;;;;;5076916;28;19916;-59
2022/07/25 04:46:47;;;;;;;;;;;27.70;48.60;;;;;;5074856;28;20469;-59
2022/07/25 04:49:12;;;;;;;;;;;27.70;48.70;;;;;;5077649;28;19915;-57
2022/07/25 04:51:38;;;;;;;;;;;27.70;48.30;;;;;;5076343;28;19909;-57
2022/07/25 04:54:04;;;;;;;;;;;27.70;48.20;;;;;;5074655;28;19923;-58
2022/07/25 04:56:29;;;;;;;;;;;27.70;48.40;;;;;;5073705;28;19912;-57
2022/07/25 04:58:55;;;;;;;;;;;27.80;48.50;;;;;;5074692;28;19909;-58
2022/07/25 05:01:21;;;;;;;;;;;27.80;48.20;;;;;;5074442;28;19913;-58
2022/07/25 05:03:46;;;;;;;;;;;27.80;48.20;;;;;;5074651;28;19935;-58
2022/07/25 05:06:12;;;;;;;;;;;27.80;48.40;;;;;;5074531;28;19977;-62
2022/07/25 05:08:38;;;;;;;;;;;27.90;48.50;;;;;;5074630;28;19930;-58
2022/07/25 05:11:03;;;;;;;;;;;27.90;48.50;;;;;;5074542;28;19916;-58
2022/07/25 05:13:29;;;;;;;;;;;27.90;48.10;;;;;;5074372;28;19978;-58
2022/07/25 05:15:54;;;;;;;;;;;27.90;48.10;;;;;;5074288;28;20288;-61
2022/07/25 05:18:20;;;;;;;;;;;27.90;48.40;;;;;;5074206;28;19962;-60
2022/07/25 05:20:46;;;;;;;;;;;28.00;48.40;;;;;;5074466;28;20134;-62
2022/07/25 05:23:11;;;;;;;;;;;28.00;48.70;;;;;;5074340;28;20381;-62
2022/07/25 05:25:37;;;;;;;;;;;28.00;48.40;;;;;;5074041;28;19912;-65
2022/07/25 05:28:03;;;;;;;;;;;28.00;48.50;;;;;;5073902;28;19945;-61
2022/07/25 05:30:29;;;;;;;;;;;28.10;48.30;;;;;;5072164;28;19954;-68
2022/07/25 05:32:54;;;;;;;;;;;28.10;48.20;;;;;;5074220;28;20315;-62
2022/07/25 05:35:20;;;;;;;;;;;28.20;48.10;;;;;;5073895;28;19908;-67
2022/07/25 05:37:45;;;;;;;;;;;28.20;48.20;;;;;;5073804;28;19916;-62
2022/07/25 05:40:12;;;;;;;;;;;28.30;47.80;;;;;;5073892;28;20007;-62
2022/07/25 05:42:37;;;;;;;;;;;28.30;47.40;;;;;;5088099;28;20003;-61
2022/07/25 05:45:03;;;;;;;;;;;28.30;47.50;;;;;;5073683;28;19963;-64
2022/07/25 05:47:29;;;;;;;;;;;28.30;47.60;;;;;;5073796;28;19908;-63
2022/07/25 05:49:54;;;;;;;;;;;28.40;47.30;;;;;;5073781;28;19912;-60
2022/07/25 05:52:20;;;;;;;;;;;28.50;46.60;;;;;;5073791;28;19964;-60
2022/07/25 05:54:45;;;;;;;;;;;28.80;46.80;;;;;;5073523;28;19944;-55
2022/07/25 05:57:11;;;;;;;;;;;29.20;46.00;;;;;;5073495;28;19927;-60
2022/07/25 05:59:36;;;;;;;;;;;29.50;45.60;;;;;;5073385;28;19947;-60
2022/07/25 06:02:02;;;;;;;;;;;29.80;45.00;;;;;;5073436;28;19962;-61
2022/07/25 06:04:28;;;;;;;;;;;30.20;44.10;;;;;;5073407;28;19939;-59
2022/07/25 06:06:53;;;;;;;;;;;30.60;43.00;;;;;;5073280;28;20011;-60
2022/07/25 06:09:20;;;;;;;;;;;31.00;42.50;;;;;;5073314;28;19909;-61
2022/07/25 06:11:46;;;;;;;;;;;31.30;41.80;;;;;;5073158;28;19913;-60
2022/07/25 06:14:12;;;;;;;;;;;31.70;41.10;;;;;;5073022;28;19915;-61
2022/07/25 06:16:37;;;;;;;;;;;32.10;40.30;;;;;;5073051;28;19924;-60
2022/07/25 06:19:03;;;;;;;;;;;32.30;39.00;;;;;;5073205;28;20315;-61
2022/07/25 06:21:29;;;;;;;;;;;32.70;38.80;;;;;;5073066;28;19909;-62
2022/07/25 06:23:55;;;;;;;;;;;32.90;38.30;;;;;;5072956;28;20330;-61
2022/07/25 06:26:20;;;;;;;;;;;33.20;37.80;;;;;;5073016;28;19947;-60
2022/07/25 06:28:46;;;;;;;;;;;33.40;37.50;;;;;;5072818;28;19918;-60
2022/07/25 06:31:11;;;;;;;;;;;33.50;36.90;;;;;;5073003;28;19912;-59
2022/07/25 06:33:37;;;;;;;;;;;33.70;36.80;;;;;;5072652;28;19908;-59
2022/07/25 06:36:03;;;;;;;;;;;34.00;36.30;;;;;;5071967;28;19908;-61
2022/07/25 06:38:29;;;;;;;;;;;34.10;35.60;;;;;;5071943;28;19922;-59
2022/07/25 06:40:54;;;;;;;;;;;34.30;35.40;;;;;;5078607;28;19912;-60
2022/07/25 06:43:20;;;;;;;;;;;34.40;35.60;;;;;;5089554;28;19958;-62
2022/07/25 06:45:46;;;;;;;;;;;34.50;34.90;;;;;;5072223;28;19934;-61
2022/07/25 06:48:15;;;;;;;;;;;34.70;34.80;;;;;;5073104;28;20004;-61
2022/07/25 06:50:41;;;;;;;;;;;34.80;34.30;;;;;;5072572;28;19916;-63
2022/07/25 06:53:06;;;;;;;;;;;34.90;34.50;;;;;;5072261;28;19957;-63
2022/07/25 06:55:32;;;;;;;;;;;35.10;34.00;;;;;;5072569;28;19969;-63
2022/07/25 06:57:58;;;;;;;;;;;35.30;33.20;;;;;;5072278;28;19917;-64
2022/07/25 07:00:23;;;;;;;;;;;35.20;33.50;;;;;;5072833;28;19913;-62
2022/07/25 07:02:57;;;;;;;;;;;35.30;33.50;;;;;;5072594;28;20269;-65
2022/07/25 07:05:23;;;;;;;;;;;35.30;33.00;;;;;;5072428;28;20501;-63
2022/07/25 07:07:48;;;;;;;;;;;35.40;32.60;;;;;;5072353;28;19936;-64
2022/07/25 07:10:15;;;;;;;;;;;35.60;32.80;;;;;;5072387;28;20365;-64
2022/07/25 07:12:40;;;;;;;;;;;35.70;31.60;;;;;;5072513;28;20368;-64
2022/07/25 07:15:06;;;;;;;;;;;35.70;31.20;;;;;;5072241;28;19912;-63
2022/07/25 07:17:32;;;;;;;;;;;35.90;31.00;;;;;;5072086;28;19931;-66
2022/07/25 07:19:57;;;;;;;;;;;35.90;30.80;;;;;;5072161;28;20292;-64
2022/07/25 07:22:23;;;;;;;;;;;35.90;30.80;;;;;;5072201;28;20402;-65
2022/07/25 07:24:48;;;;;;;;;;;36.00;30.70;;;;;;5071952;28;19916;-64
2022/07/25 07:27:14;;;;;;;;;;;36.00;30.80;;;;;;5072086;28;19908;-63
2022/07/25 07:29:40;;;;;;;;;;;36.10;30.30;;;;;;5072185;28;19908;-63
2022/07/25 07:32:06;;;;;;;;;;;36.10;30.30;;;;;;5072004;28;19913;-62
2022/07/25 07:34:32;;;;;;;;;;;36.00;30.10;;;;;;5072122;28;19912;-64
2022/07/25 07:36:57;;;;;;;;;;;36.00;30.20;;;;;;5071969;28;20461;-63
2022/07/25 07:39:23;;;;;;;;;;;36.10;30.30;;;;;;5072124;28;19912;-62
2022/07/25 07:41:48;;;;;;;;;;;36.20;30.30;;;;;;5083055;28;19945;-62
2022/07/25 07:44:14;;;;;;;;;;;36.30;30.00;;;;;;5074980;28;19963;-63
2022/07/25 07:46:39;;;;;;;;;;;36.40;29.80;;;;;;5072127;28;19916;-63
2022/07/25 07:49:05;;;;;;;;;;;36.40;29.90;;;;;;5072445;28;19919;-62
2022/07/25 07:51:30;;;;;;;;;;;36.50;30.00;;;;;;5076052;28;19908;-63
2022/07/25 07:56:40;;;;;;;;;;;36.70;29.40;;;;;;5075938;28;19994;-61
2022/07/25 07:59:06;;;;;;;;;;;36.60;29.10;;;;;;5075886;28;19919;-63
2022/07/25 08:01:31;;;;;;;;;;;36.60;29.30;;;;;;5076074;28;19908;-62
2022/07/25 08:03:57;;;;;;;;;;;36.80;29.10;;;;;;5075786;28;19908;-61
2022/07/25 08:06:23;;;;;;;;;;;36.80;29.10;;;;;;5075727;28;19912;-60
2022/07/25 08:08:48;;;;;;;;;;;36.80;29.40;;;;;;5075622;28;19909;-60
2022/07/25 08:11:14;;;;;;;;;;;36.90;29.30;;;;;;5075810;28;20014;-61
2022/07/25 08:13:39;;;;;;;;;;;37.00;29.00;;;;;;5075662;28;20375;-62
2022/07/25 08:16:05;;;;;;;;;;;36.90;28.50;;;;;;5074321;28;19981;-61
2022/07/25 08:18:34;;;;;;;;;;;36.30;29.40;;;;;;5074097;28;19921;-62
2022/07/25 08:21:01;;;;;;;;;;;35.80;29.40;;;;;;5074533;28;20061;-60
2022/07/25 08:23:27;;;;;;;;;;;35.50;29.00;;;;;;5073647;28;20313;-62
2022/07/25 08:25:53;;;;;;;;;;;35.40;29.30;;;;;;5074087;28;19908;-63
2022/07/25 08:28:18;;;;;;;;;;;35.40;29.10;;;;;;5074312;28;20007;-63
2022/07/25 08:30:44;;;;;;;;;;;35.50;29.90;;;;;;5074205;28;20025;-63
2022/07/25 08:33:12;;;;;;;;;;;35.30;30.20;;;;;;5076274;28;19915;-62
2022/07/25 08:35:38;;;;;;;;;;;35.30;30.80;;;;;;5081553;28;19908;-64
2022/07/25 08:38:04;;;;;;;;;;;35.30;30.60;;;;;;5075233;28;19928;-63
2022/07/25 08:40:30;;;;;;;;;;;35.40;30.20;;;;;;5075209;28;19909;-63
2022/07/25 08:42:57;;;;;;;;;;;35.50;30.00;;;;;;5088676;28;20252;-63
2022/07/25 08:45:23;;;;;;;;;;;35.60;30.00;;;;;;5072136;28;20356;-62
2022/07/25 08:47:49;;;;;;;;;;;35.70;29.80;;;;;;5073959;28;19961;-62
2022/07/25 08:50:17;;;;;;;;;;;35.60;29.50;;;;;;5074973;28;19909;-61
2022/07/25 08:52:44;;;;;;;;;;;35.70;29.70;;;;;;5075051;28;19912;-62
2022/07/25 08:55:13;;;;;;;;;;;35.60;30.80;;;;;;5083948;28;20382;-61
2022/07/25 08:57:42;;;;;;;;;;;35.10;30.70;;;;;;5078545;28;19925;-63
2022/07/25 09:00:09;;;;;;;;;;;34.90;31.00;;;;;;5080159;28;19916;-62
2022/07/25 09:02:34;;;;;;;;;;;34.90;30.80;;;;;;5079849;28;19916;-61
2022/07/25 09:05:00;;;;;;;;;;;34.60;30.80;;;;;;5073351;28;19912;-63
2022/07/25 09:07:33;;;;;;;;;;;34.60;31.00;;;;;;5073562;28;19917;-61
2022/07/25 09:10:09;;;;;;;;;;;34.30;30.20;;;;;;5071829;28;19912;-60
2022/07/25 09:12:35;;;;;;;;;;;34.20;31.00;;;;;;5073668;28;19913;-60
2022/07/25 09:15:01;;;;;;;;;;;34.30;31.00;;;;;;5073391;28;19913;-61
2022/07/25 09:17:26;;;;;;;;;;;34.30;32.20;;;;;;5073528;28;20352;-60
2022/07/25 09:19:53;;;;;;;;;;;34.60;33.10;;;;;;5073066;28;19917;-63
2022/07/25 09:22:19;;;;;;;;;;;34.50;32.60;;;;;;5073623;28;19912;-61
2022/07/25 09:24:44;;;;;;;;;;;34.20;33.10;;;;;;5072713;28;20375;-62
2022/07/25 09:27:10;;;;;;;;;;;33.80;33.80;;;;;;5074147;28;19916;-61
2022/07/25 09:29:37;;;;;;;;;;;33.60;34.60;;;;;;5074050;28;20339;-61
2022/07/25 09:32:13;;;;;;;;;;;33.60;34.90;;;;;;5074044;28;19915;-65
2022/07/25 09:34:39;;;;;;;;;;;33.50;35.10;;;;;;5071848;28;20005;-67
2022/07/25 09:37:06;;;;;;;;;;;33.50;35.80;;;;;;5072847;28;19920;-62
2022/07/25 09:39:40;;;;;;;;;;;33.90;35.40;;;;;;5072984;28;19908;-63
2022/07/25 09:42:15;;;;;;;;;;;34.10;34.40;;;;;;5085865;28;19912;-63
2022/07/25 09:44:41;;;;;;;;;;;34.20;34.00;;;;;;5091298;28;19922;-61
2022/07/25 09:47:10;;;;;;;;;;;34.50;32.00;;;;;;5073921;28;19991;-60
2022/07/25 09:49:40;;;;;;;;;;;34.60;32.00;;;;;;5070633;28;19999;-60
2022/07/25 09:52:06;;;;;;;;;;;34.60;32.30;;;;;;5072833;28;20011;-69
2022/07/25 09:54:32;;;;;;;;;;;34.40;32.30;;;;;;5072948;28;19948;-60
2022/07/25 09:56:57;;;;;;;;;;;33.90;32.00;;;;;;5072689;28;20376;-61
2022/07/25 09:59:23;;;;;;;;;;;33.90;33.20;;;;;;5072610;28;20133;-62
2022/07/25 10:01:59;;;;;;;;;;;33.90;33.70;;;;;;5073425;28;19908;-65
2022/07/25 10:04:33;;;;;;;;;;;33.90;33.30;;;;;;5072122;28;19954;-62
2022/07/25 10:07:06;;;;;;;;;;;33.90;34.00;;;;;;5059809;28;19995;-63
2022/07/25 10:09:31;;;;;;;;;;;33.80;34.50;;;;;;5073227;28;19912;-63
2022/07/25 10:12:03;;;;;;;;;;;33.50;35.50;;;;;;5073553;28;19957;-63
2022/07/25 10:14:29;;;;;;;;;;;33.60;34.40;;;;;;5073382;28;19915;-63
2022/07/25 10:16:55;;;;;;;;;;;33.70;35.70;;;;;;5073393;28;19920;-61
2022/07/25 10:19:38;;;;;;;;;;;33.90;35.90;;;;;;5073478;28;20288;-61
2022/07/25 10:22:04;;;;;;;;;;;34.00;34.90;;;;;;5073175;28;19956;-60
2022/07/25 10:24:33;;;;;;;;;;;34.20;34.60;;;;;;5073926;28;19951;-61
2022/07/25 10:27:05;;;;;;;;;;;34.20;36.30;;;;;;5073576;28;19908;-68
2022/07/25 10:29:35;;;;;;;;;;;34.30;36.80;;;;;;5073338;28;19958;-62
2022/07/25 10:32:13;;;;;;;;;;;33.60;37.40;;;;;;5073001;28;19913;-63
2022/07/25 10:34:38;;;;;;;;;;;33.60;39.30;;;;;;5072778;28;20268;-63
2022/07/25 10:37:08;;;;;;;;;;;33.80;40.00;;;;;;5072939;28;19931;-62
2022/07/25 10:39:37;;;;;;;;;;;33.80;37.90;;;;;;5072750;28;19913;-59
2022/07/25 10:42:04;;;;;;;;;;;33.70;38.70;;;;;;5086023;28;19912;-60
2022/07/25 10:44:43;;;;;;;;;;;33.90;39.50;;;;;;5073519;28;20478;-58
2022/07/25 10:47:10;;;;;;;;;;;34.00;38.20;;;;;;5072741;28;19917;-59
2022/07/25 10:49:40;;;;;;;;;;;34.10;38.30;;;;;;5072752;28;19942;-59
2022/07/25 10:52:06;;;;;;;;;;;34.10;38.90;;;;;;5072837;28;19915;-59
2022/07/25 10:54:38;;;;;;;;;;;34.10;37.30;;;;;;5072516;28;19908;-60
2022/07/25 10:57:04;;;;;;;;;;;34.20;38.70;;;;;;5072510;28;19928;-58
2022/07/25 10:59:30;;;;;;;;;;;33.90;38.40;;;;;;5072438;28;19908;-58
2022/07/25 11:01:56;;;;;;;;;;;33.90;40.70;;;;;;5072736;28;19935;-57
2022/07/25 11:04:22;;;;;;;;;;;33.50;40.20;;;;;;5072346;28;20292;-56
2022/07/25 11:06:48;;;;;;;;;;;33.60;40.90;;;;;;5072471;28;19912;-58
2022/07/25 11:09:14;;;;;;;;;;;33.70;40.10;;;;;;5072498;28;19919;-57
2022/07/25 11:11:46;;;;;;;;;;;33.70;38.40;;;;;;5077066;28;19943;-57
2022/07/25 11:14:18;;;;;;;;;;;33.80;37.80;;;;;;5080824;28;19916;-57
2022/07/25 11:16:44;;;;;;;;;;;33.70;36.90;;;;;;5072599;28;19928;-64
2022/07/25 11:19:19;;;;;;;;;;;33.90;35.70;;;;;;5073119;28;19919;-64
2022/07/25 11:21:48;;;;;;;;;;;34.10;36.10;;;;;;5072542;28;20380;-58
2022/07/25 11:24:14;;;;;;;;;;;34.20;36.60;;;;;;5072042;28;19924;-57
2022/07/25 11:26:47;;;;;;;;;;;34.00;35.50;;;;;;5072783;28;19913;-58
2022/07/25 11:29:19;;;;;;;;;;;34.00;34.10;;;;;;5072594;28;19908;-59
2022/07/25 11:31:58;;;;;;;;;;;34.20;33.70;;;;;;5072059;28;19908;-63
2022/07/25 11:34:26;;;;;;;;;;;34.20;33.80;;;;;;5072279;28;19916;-58
2022/07/25 11:36:55;;;;;;;;;;;34.20;33.80;;;;;;5071976;28;19913;-60
2022/07/25 11:39:29;;;;;;;;;;;34.30;33.70;;;;;;5071981;28;19966;-60
2022/07/25 11:41:59;;;;;;;;;;;34.40;33.40;;;;;;5084211;28;19912;-57
2022/07/25 11:44:57;;;;;;;;;;;34.10;35.00;;;;;;5074196;28;19908;-55
2022/07/25 11:47:25;;;;;;;;;;;34.20;33.60;;;;;;5060142;28;20390;-56
2022/07/25 11:49:51;;;;;;;;;;;33.80;34.50;;;;;;5072869;28;19909;-63
2022/07/25 11:52:23;;;;;;;;;;;33.70;34.40;;;;;;5072308;28;19916;-61
2022/07/25 11:54:51;;;;;;;;;;;33.70;35.30;;;;;;5071986;28;19908;-58
2022/07/25 11:57:21;;;;;;;;;;;33.90;35.70;;;;;;5071912;28;19924;-58
2022/07/25 11:59:47;;;;;;;;;;;33.90;35.50;;;;;;5077106;28;19908;-61
2022/07/25 12:02:22;;;;;;;;;;;33.90;36.00;;;;;;5072252;28;19958;-58
2022/07/25 12:04:54;;;;;;;;;;;33.80;36.20;;;;;;5071819;28;19938;-57
2022/07/25 12:07:20;;;;;;;;;;;33.70;36.50;;;;;;5072028;28;19908;-58
2022/07/25 12:09:54;;;;;;;;;;;34.00;36.90;;;;;;5071807;28;19920;-54
2022/07/25 12:12:20;;;;;;;;;;;34.00;36.70;;;;;;5071818;28;20287;-60
2022/07/25 12:14:45;;;;;;;;;;;33.60;37.90;;;;;;5071432;28;19912;-59
2022/07/25 12:17:11;;;;;;;;;;;33.50;38.60;;;;;;5071481;28;19927;-58
2022/07/25 12:19:38;;;;;;;;;;;33.30;38.20;;;;;;5071626;28;20322;-56
2022/07/25 12:22:04;;;;;;;;;;;33.30;39.10;;;;;;5071839;28;19913;-59
2022/07/25 12:24:29;;;;;;;;;;;33.50;39.60;;;;;;5071629;28;20398;-57
2022/07/25 12:26:55;;;;;;;;;;;33.50;38.60;;;;;;5071533;28;20027;-60
2022/07/25 12:29:20;;;;;;;;;;;33.70;39.30;;;;;;5071710;28;19908;-62
2022/07/25 12:31:46;;;;;;;;;;;33.90;38.60;;;;;;5071514;28;20328;-59
2022/07/25 12:34:11;;;;;;;;;;;33.80;39.30;;;;;;5071575;28;20265;-59
2022/07/25 12:36:42;;;;;;;;;;;33.90;38.30;;;;;;5072485;28;19932;-60
2022/07/25 12:39:08;;;;;;;;;;;34.00;38.70;;;;;;5075239;28;19931;-64
2022/07/25 12:41:34;;;;;;;;;;;33.90;39.40;;;;;;5084064;28;19912;-60
2022/07/25 12:44:01;;;;;;;;;;;33.90;39.50;;;;;;5079943;28;19916;-59
2022/07/25 12:46:27;;;;;;;;;;;34.00;39.00;;;;;;5075220;28;19916;-64
2022/07/25 12:48:52;;;;;;;;;;;34.10;39.20;;;;;;5074989;28;20361;-59
2022/07/25 12:51:19;;;;;;;;;;;33.70;40.20;;;;;;5074881;28;19912;-59
2022/07/25 12:53:44;;;;;;;;;;;33.70;40.30;;;;;;5076004;28;19919;-68
2022/07/25 12:56:10;;;;;;;;;;;33.90;39.50;;;;;;5077364;28;19995;-66
2022/07/25 12:58:36;;;;;;;;;;;34.10;38.80;;;;;;5076205;28;19920;-66
2022/07/25 13:01:02;;;;;;;;;;;34.20;38.90;;;;;;5073922;28;20359;-63
2022/07/25 13:03:28;;;;;;;;;;;34.30;39.10;;;;;;5073781;28;19939;-71
2022/07/25 13:05:53;;;;;;;;;;;33.90;40.10;;;;;;5073594;28;20313;-63
2022/07/25 13:08:19;;;;;;;;;;;33.90;39.70;;;;;;5093332;28;19904;-62
2022/07/25 13:10:44;;;;;;;;;;;33.80;40.70;;;;;;5093536;28;19940;-62
2022/07/25 13:13:10;;;;;;;;;;;33.60;41.30;;;;;;5081679;28;19913;-68
2022/07/25 13:15:36;;;;;;;;;;;33.90;41.70;;;;;;5074323;28;19916;-66
2022/07/25 13:18:02;;;;;;;;;;;33.60;43.00;;;;;;5074493;28;19921;-65
2022/07/25 13:20:28;;;;;;;;;;;33.10;43.60;;;;;;5074347;28;19913;-61
2022/07/25 13:22:54;;;;;;;;;;;32.90;43.60;;;;;;5074646;28;20520;-65
2022/07/25 13:25:19;;;;;;;;;;;33.00;44.20;;;;;;5074489;28;19909;-62
2022/07/25 13:27:46;;;;;;;;;;;32.90;44.90;;;;;;5073129;28;19937;-59
2022/07/25 13:30:13;;;;;;;;;;;33.00;44.30;;;;;;5074352;28;20001;-61
2022/07/25 13:32:39;;;;;;;;;;;33.30;42.40;;;;;;5074039;28;19916;-60
2022/07/25 13:35:05;;;;;;;;;;;33.40;42.40;;;;;;5074108;28;20050;-64
2022/07/25 13:37:31;;;;;;;;;;;33.50;43.40;;;;;;5074016;28;20007;-62
2022/07/25 13:39:57;;;;;;;;;;;33.80;42.40;;;;;;5074307;28;20641;-62
2022/07/25 13:42:22;;;;;;;;;;;33.70;42.30;;;;;;5089724;28;19912;-65
2022/07/25 13:44:48;;;;;;;;;;;33.60;42.20;;;;;;5073915;28;19935;-65
2022/07/25 13:47:13;;;;;;;;;;;33.50;40.90;;;;;;5073540;28;20376;-59
2022/07/25 13:49:40;;;;;;;;;;;33.60;41.80;;;;;;5072805;28;19931;-61
2022/07/25 13:52:05;;;;;;;;;;;33.40;41.60;;;;;;5073913;28;19935;-62
2022/07/25 13:54:31;;;;;;;;;;;33.60;40.40;;;;;;5073662;28;19913;-65
2022/07/25 13:56:57;;;;;;;;;;;33.60;37.80;;;;;;5073884;28;19928;-60
2022/07/25 13:59:22;;;;;;;;;;;33.70;38.70;;;;;;5073783;28;20007;-61
2022/07/25 14:01:48;;;;;;;;;;;33.90;39.40;;;;;;5073844;28;19908;-67
2022/07/25 14:04:14;;;;;;;;;;;34.00;39.70;;;;;;5074145;28;19920;-63
2022/07/25 14:06:40;;;;;;;;;;;34.10;38.20;;;;;;5073663;28;19912;-62
2022/07/25 14:09:06;;;;;;;;;;;34.10;38.80;;;;;;5073575;28;20269;-62
2022/07/25 14:11:31;;;;;;;;;;;33.90;39.30;;;;;;5073513;28;19915;-63
2022/07/25 14:13:57;;;;;;;;;;;34.00;39.00;;;;;;5073405;28;19920;-66
2022/07/25 14:16:23;;;;;;;;;;;34.00;37.80;;;;;;5073311;28;20288;-60